Time;durP1;ratioP1;P1;durP2;ratioP2;P2;SDS_P1;SDS_P2;PMS_P1;PMS_P2;Temp;Humidity;BMP_temperature;BMP_pressure;BME280_temperature;BME280_humidity;BME280_pressure;Samples;Min_cycle;Max_cycle;Signal;HPM_P1;HPM_P2
2022/03/08 00:02:17;;;;;;;25.00;14.20;;;-2.60;69.50;;;;;;5022708;28;20613;-80
2022/03/08 00:04:44;;;;;;;22.65;12.93;;;-2.70;69.40;;;;;;5040355;28;20661;-79
2022/03/08 00:07:10;;;;;;;25.13;13.85;;;-2.70;69.50;;;;;;5041118;28;20104;-78
2022/03/08 00:09:35;;;;;;;24.55;13.70;;;-2.70;69.80;;;;;;5023493;28;20480;-79
2022/03/08 00:12:02;;;;;;;21.85;11.52;;;-2.70;70.00;;;;;;5054474;28;20025;-78
2022/03/08 00:14:28;;;;;;;26.33;13.68;;;-2.80;70.00;;;;;;5045352;28;20030;-79
2022/03/08 00:16:55;;;;;;;23.80;13.23;;;-2.80;70.10;;;;;;5038898;28;20437;-79
2022/03/08 00:19:20;;;;;;;24.38;13.27;;;-2.80;70.20;;;;;;5038759;28;20048;-77
2022/03/08 00:21:46;;;;;;;25.58;13.25;;;-2.80;70.10;;;;;;5037686;28;20022;-78
2022/03/08 00:24:12;;;;;;;25.98;14.18;;;-2.80;70.10;;;;;;5033161;28;20092;-78
2022/03/08 00:26:38;;;;;;;26.92;13.45;;;-2.80;70.30;;;;;;5016484;28;20441;-77
2022/03/08 00:29:04;;;;;;;25.00;13.20;;;-2.90;70.20;;;;;;5016727;28;20026;-77
2022/03/08 00:31:30;;;;;;;19.27;12.00;;;-2.90;70.30;;;;;;5001336;28;20117;-78
2022/03/08 00:33:56;;;;;;;21.73;11.68;;;-3.00;70.30;;;;;;5020183;28;20096;-79
2022/03/08 00:36:22;;;;;;;26.60;13.90;;;-3.00;70.50;;;;;;5022724;28;20101;-78
2022/03/08 00:38:48;;;;;;;21.88;12.88;;;-3.00;70.70;;;;;;5022486;28;20041;-78
2022/03/08 00:41:14;;;;;;;23.35;12.85;;;-3.00;70.80;;;;;;5024096;28;20026;-78
2022/03/08 00:43:40;;;;;;;17.83;11.45;;;-3.10;70.90;;;;;;5023816;28;20045;-79
2022/03/08 00:46:06;;;;;;;20.67;11.32;;;-3.10;71.00;;;;;;5020953;28;20028;-79
2022/03/08 00:48:32;;;;;;;22.30;12.80;;;-3.10;71.00;;;;;;5026313;28;20113;-78
2022/03/08 00:50:57;;;;;;;21.88;12.30;;;-3.10;71.00;;;;;;5003649;28;20120;-79
2022/03/08 00:53:23;;;;;;;24.70;12.88;;;-3.00;70.90;;;;;;5024887;28;20660;-78
2022/03/08 00:55:49;;;;;;;21.35;12.02;;;-3.10;71.00;;;;;;5033989;28;20010;-78
2022/03/08 00:58:15;;;;;;;20.38;12.32;;;-3.10;71.20;;;;;;5020896;28;20101;-77
2022/03/08 01:00:41;;;;;;;22.08;12.60;;;-3.10;71.40;;;;;;5024356;28;20352;-77
2022/03/08 01:03:07;;;;;;;22.10;11.70;;;-3.10;71.60;;;;;;5021054;28;20045;-77
2022/03/08 01:05:34;;;;;;;22.17;12.70;;;-3.10;71.40;;;;;;5020898;28;20495;-78
2022/03/08 01:08:00;;;;;;;21.33;11.00;;;-3.10;71.20;;;;;;5024085;28;20033;-78
2022/03/08 01:10:27;;;;;;;20.60;12.48;;;-3.20;71.20;;;;;;5020067;28;20053;-77
2022/03/08 01:12:54;;;;;;;21.35;11.80;;;-3.20;71.30;;;;;;5020746;28;20026;-79
2022/03/08 01:15:21;;;;;;;21.10;11.80;;;-3.10;71.10;;;;;;5025551;28;20053;-78
2022/03/08 01:17:47;;;;;;;22.02;12.27;;;-3.10;71.50;;;;;;5021842;28;20069;-78
2022/03/08 01:20:14;;;;;;;17.67;10.52;;;-3.10;70.80;;;;;;5023835;28;20025;-79
2022/03/08 01:22:41;;;;;;;21.85;12.38;;;-3.10;70.60;;;;;;5020353;28;20036;-78
2022/03/08 01:25:09;;;;;;;18.00;11.32;;;-3.10;70.70;;;;;;5030322;28;20056;-78
2022/03/08 01:27:35;;;;;;;19.25;10.57;;;-3.10;70.80;;;;;;5038789;28;20030;-77
2022/03/08 01:30:02;;;;;;;19.33;10.18;;;-3.10;70.80;;;;;;5032375;28;20029;-77
2022/03/08 01:32:28;;;;;;;14.55;9.43;;;-3.10;71.00;;;;;;5025065;28;20073;-77
2022/03/08 01:34:53;;;;;;;17.75;10.48;;;-3.10;70.90;;;;;;5027801;28;20026;-79
2022/03/08 01:37:20;;;;;;;19.85;10.38;;;-3.10;70.90;;;;;;5022072;28;20053;-77
2022/03/08 01:39:46;;;;;;;17.15;10.25;;;-3.00;71.10;;;;;;5027140;28;20030;-78
2022/03/08 01:42:14;;;;;;;17.65;11.00;;;-3.10;71.20;;;;;;5021558;28;20110;-78
2022/03/08 01:44:46;;;;;;;17.40;10.30;;;-3.10;71.10;;;;;;5027819;28;20053;-78
2022/03/08 01:47:17;;;;;;;21.10;11.18;;;-3.10;71.10;;;;;;5022507;28;20029;-78
2022/03/08 01:49:44;;;;;;;20.75;11.60;;;-3.10;71.20;;;;;;5027929;28;20029;-78
2022/03/08 01:52:11;;;;;;;20.85;11.70;;;-3.20;71.30;;;;;;5020903;28;20023;-78
2022/03/08 01:54:37;;;;;;;18.58;10.65;;;-3.30;71.40;;;;;;5030338;28;20021;-78
2022/03/08 01:57:04;;;;;;;18.70;11.07;;;-3.30;71.80;;;;;;5014800;28;20021;-78
2022/03/08 01:59:31;;;;;;;19.67;11.05;;;-3.30;71.80;;;;;;5046213;28;20031;-79
2022/03/08 02:01:57;;;;;;;22.40;12.32;;;-3.30;71.90;;;;;;5022803;28;20030;-78
2022/03/08 02:04:23;;;;;;;21.48;11.60;;;-3.30;72.00;;;;;;5044366;28;20072;-78
2022/03/08 02:06:49;;;;;;;19.25;10.88;;;-3.40;72.00;;;;;;5047262;28;20026;-78
2022/03/08 02:09:15;;;;;;;20.60;12.23;;;-3.40;72.40;;;;;;5040086;28;20036;-78
2022/03/08 02:11:42;;;;;;;21.80;11.77;;;-3.40;72.40;;;;;;5039625;28;20030;-78
2022/03/08 02:14:08;;;;;;;20.48;10.90;;;-3.40;72.50;;;;;;5042485;28;20048;-78
2022/03/08 02:16:34;;;;;;;21.98;11.70;;;-3.40;72.50;;;;;;5042710;28;20129;-78
2022/03/08 02:19:00;;;;;;;18.83;10.80;;;-3.40;72.60;;;;;;5040062;28;20061;-78
2022/03/08 02:21:26;;;;;;;20.77;11.23;;;-3.40;72.70;;;;;;5039316;28;20033;-78
2022/03/08 02:23:52;;;;;;;20.58;10.82;;;-3.40;72.70;;;;;;5040971;28;20037;-78
2022/03/08 02:26:21;;;;;;;16.70;9.82;;;-3.40;72.90;;;;;;5028182;28;20030;-80
2022/03/08 02:28:47;;;;;;;18.38;10.35;;;-3.40;73.00;;;;;;5047722;28;20053;-78
2022/03/08 02:31:17;;;;;;;20.10;10.60;;;-3.40;73.10;;;;;;5047263;28;20085;-77
2022/03/08 02:33:44;;;;;;;16.58;9.27;;;-3.40;73.10;;;;;;5046220;28;20056;-77
2022/03/08 02:36:09;;;;;;;16.80;9.77;;;-3.40;73.10;;;;;;5045886;28;20036;-79
2022/03/08 02:38:35;;;;;;;21.25;11.07;;;-3.40;73.10;;;;;;5048000;28;20029;-76
2022/03/08 02:41:01;;;;;;;17.35;9.82;;;-3.40;72.90;;;;;;5046410;28;20085;-78
2022/03/08 02:43:27;;;;;;;21.17;10.43;;;-3.40;72.80;;;;;;5048637;28;20087;-78
2022/03/08 02:45:52;;;;;;;20.50;10.90;;;-3.40;72.80;;;;;;5044056;28;20021;-78
2022/03/08 02:48:18;;;;;;;19.73;10.23;;;-3.40;72.70;;;;;;5045246;28;20037;-78
2022/03/08 02:50:44;;;;;;;17.33;9.57;;;-3.40;72.50;;;;;;5047563;28;20413;-78
2022/03/08 02:53:10;;;;;;;17.35;10.70;;;-3.50;72.50;;;;;;5046127;28;20026;-77
2022/03/08 02:55:36;;;;;;;19.67;10.95;;;-3.50;72.70;;;;;;5036525;28;20014;-78
2022/03/08 02:58:04;;;;;;;16.25;9.82;;;-3.50;72.80;;;;;;5040653;28;20032;-79
2022/03/08 03:00:32;;;;;;;19.00;10.27;;;-3.50;72.90;;;;;;5048719;28;20026;-78
2022/03/08 03:02:58;;;;;;;16.73;9.65;;;-3.50;72.80;;;;;;5024930;28;20089;-78
2022/03/08 03:05:24;;;;;;;18.15;11.07;;;-3.50;72.80;;;;;;5042490;28;20029;-78
2022/03/08 03:07:50;;;;;;;17.05;10.30;;;-3.40;72.80;;;;;;5044755;28;20104;-78
2022/03/08 03:10:19;;;;;;;17.67;10.20;;;-3.40;72.90;;;;;;5046106;28;20061;-79
2022/03/08 03:12:45;;;;;;;15.73;9.88;;;-3.40;72.90;;;;;;5044002;28;20022;-78
2022/03/08 03:15:13;;;;;;;15.88;8.73;;;-3.30;72.80;;;;;;5042223;28;20017;-78
2022/03/08 03:17:40;;;;;;;18.45;9.90;;;-3.30;72.70;;;;;;5042865;28;20051;-77
2022/03/08 03:20:08;;;;;;;18.40;10.98;;;-3.30;72.60;;;;;;5043139;28;20509;-78
2022/03/08 03:22:35;;;;;;;16.52;9.43;;;-3.30;72.40;;;;;;5046677;28;20030;-78
2022/03/08 03:25:01;;;;;;;20.33;11.20;;;-3.30;72.40;;;;;;5042528;28;20025;-79
2022/03/08 03:27:27;;;;;;;16.17;10.13;;;-3.30;72.50;;;;;;5035432;28;20029;-79
2022/03/08 03:29:53;;;;;;;18.33;10.18;;;-3.30;72.40;;;;;;5041885;28;20054;-77
2022/03/08 03:32:19;;;;;;;16.70;10.10;;;-3.30;72.50;;;;;;5043262;28;20124;-77
2022/03/08 03:34:46;;;;;;;15.20;9.48;;;-3.30;72.50;;;;;;5041006;28;20032;-77
2022/03/08 03:37:12;;;;;;;16.90;9.82;;;-3.30;72.60;;;;;;5043753;28;20025;-78
2022/03/08 03:39:38;;;;;;;15.60;9.82;;;-3.30;72.60;;;;;;5043730;28;20148;-78
2022/03/08 03:42:04;;;;;;;17.00;10.10;;;-3.30;72.60;;;;;;5043471;28;20047;-78
2022/03/08 03:44:31;;;;;;;17.65;10.55;;;-3.30;72.60;;;;;;5042478;28;20025;-77
2022/03/08 03:46:57;;;;;;;19.30;10.43;;;-3.30;72.60;;;;;;5042377;28;20037;-76
2022/03/08 03:49:23;;;;;;;19.80;11.75;;;-3.30;72.60;;;;;;5044242;28;20486;-78
2022/03/08 03:51:51;;;;;;;20.10;11.88;;;-3.30;72.60;;;;;;5049676;28;20153;-76
2022/03/08 03:54:26;;;;;;;20.98;12.00;;;-3.40;72.70;;;;;;5054313;28;20030;-80
2022/03/08 03:56:52;;;;;;;19.13;10.73;;;-3.40;72.90;;;;;;5034847;28;20483;-77
2022/03/08 03:59:18;;;;;;;16.98;10.02;;;-3.40;73.10;;;;;;5048037;28;20075;-78
2022/03/08 04:01:43;;;;;;;17.58;10.77;;;-3.40;73.30;;;;;;5045299;28;20032;-78
2022/03/08 04:04:09;;;;;;;18.80;11.05;;;-3.50;73.40;;;;;;5030753;28;20018;-78
2022/03/08 04:06:35;;;;;;;19.27;11.68;;;-3.50;73.50;;;;;;5043562;28;20029;-77
2022/03/08 04:09:03;;;;;;;22.20;12.77;;;-3.50;73.80;;;;;;5048659;28;20025;-78
2022/03/08 04:11:29;;;;;;;19.95;11.30;;;-3.50;73.80;;;;;;5039064;28;20030;-78
2022/03/08 04:13:54;;;;;;;20.00;12.20;;;-3.50;73.80;;;;;;5050508;28;20022;-78
2022/03/08 04:16:20;;;;;;;18.80;11.02;;;-3.50;73.90;;;;;;5051035;28;20025;-77
2022/03/08 04:18:46;;;;;;;21.17;11.30;;;-3.50;73.90;;;;;;5037433;28;20036;-77
2022/03/08 04:21:12;;;;;;;24.48;12.45;;;-3.50;73.90;;;;;;5044156;28;20039;-78
2022/03/08 04:23:38;;;;;;;17.85;11.35;;;-3.60;74.00;;;;;;5049718;28;20097;-78
2022/03/08 04:26:04;;;;;;;19.60;11.48;;;-3.50;74.30;;;;;;5031562;28;20054;-78
2022/03/08 04:28:30;;;;;;;22.65;12.45;;;-3.60;74.20;;;;;;5048732;28;20034;-75
2022/03/08 04:30:55;;;;;;;19.92;11.40;;;-3.50;74.30;;;;;;5041339;28;20138;-77
2022/03/08 04:33:21;;;;;;;20.48;11.63;;;-3.50;74.50;;;;;;5029318;28;20034;-77
2022/03/08 04:35:47;;;;;;;20.55;11.38;;;-3.50;74.70;;;;;;5041563;28;20026;-78
2022/03/08 04:38:13;;;;;;;20.50;11.50;;;-3.50;74.70;;;;;;5044255;28;20037;-78
2022/03/08 04:40:39;;;;;;;20.30;12.43;;;-3.40;74.70;;;;;;5042709;28;20489;-78
2022/03/08 04:43:04;;;;;;;18.80;10.80;;;-3.40;74.60;;;;;;5041869;28;20030;-78
2022/03/08 04:45:30;;;;;;;19.90;11.38;;;-3.40;74.60;;;;;;5041797;28;20033;-77
2022/03/08 04:47:56;;;;;;;23.48;12.18;;;-3.40;74.40;;;;;;5041131;28;20025;-77
2022/03/08 04:50:22;;;;;;;22.42;11.95;;;-3.40;74.60;;;;;;5045447;28;20060;-79
2022/03/08 04:52:48;;;;;;;19.05;10.88;;;-3.40;74.70;;;;;;5042088;28;20076;-78
2022/03/08 04:55:15;;;;;;;17.67;10.90;;;-3.50;74.60;;;;;;5032060;28;20022;-77
2022/03/08 04:57:41;;;;;;;16.83;10.95;;;-3.50;74.60;;;;;;5036576;28;20217;-81
2022/03/08 05:00:11;;;;;;;21.27;11.82;;;-3.50;74.70;;;;;;5030259;28;20505;-80
2022/03/08 05:02:41;;;;;;;19.83;11.55;;;-3.50;75.00;;;;;;5028349;28;20029;-78
2022/03/08 05:05:08;;;;;;;19.23;11.30;;;-3.50;75.20;;;;;;5036509;28;20061;-81
2022/03/08 05:07:36;;;;;;;24.80;12.52;;;-3.50;75.00;;;;;;5036316;28;20049;-78
2022/03/08 05:10:04;;;;;;;21.40;11.65;;;-3.50;74.90;;;;;;5026159;28;20018;-79
2022/03/08 05:12:30;;;;;;;21.17;11.07;;;-3.50;75.00;;;;;;5033645;28;20021;-80
2022/03/08 05:14:56;;;;;;;22.35;11.27;;;-3.60;75.10;;;;;;5024807;28;20022;-81
2022/03/08 05:17:22;;;;;;;21.10;11.10;;;-3.60;75.20;;;;;;5033380;28;20030;-79
2022/03/08 05:19:48;;;;;;;21.50;12.07;;;-3.50;75.50;;;;;;5026419;28;20037;-78
2022/03/08 05:22:14;;;;;;;20.42;11.30;;;-3.50;75.60;;;;;;5032743;28;20118;-82
2022/03/08 05:24:40;;;;;;;19.15;10.88;;;-3.50;75.70;;;;;;5015231;28;20036;-81
2022/03/08 05:27:07;;;;;;;19.60;11.23;;;-3.50;75.70;;;;;;5038701;28;20124;-79
2022/03/08 05:29:33;;;;;;;18.27;10.27;;;-3.50;75.60;;;;;;5028878;28;20045;-79
2022/03/08 05:31:59;;;;;;;19.95;10.90;;;-3.50;75.70;;;;;;5017503;28;20057;-82
2022/03/08 05:34:25;;;;;;;18.88;10.50;;;-3.50;75.70;;;;;;5026481;28;20014;-80
2022/03/08 05:36:51;;;;;;;18.77;10.23;;;-3.50;75.70;;;;;;5034530;28;20029;-82
2022/03/08 05:39:17;;;;;;;16.23;10.43;;;-3.40;75.80;;;;;;5025259;28;20026;-76
2022/03/08 05:41:46;;;;;;;18.20;10.52;;;-3.40;75.90;;;;;;5016328;28;20032;-80
2022/03/08 05:44:12;;;;;;;20.77;11.18;;;-3.40;76.00;;;;;;5025878;28;20025;-82
2022/03/08 05:46:38;;;;;;;18.05;10.40;;;-3.40;76.00;;;;;;5016716;28;20056;-81
2022/03/08 05:49:03;;;;;;;16.55;9.82;;;-3.40;76.10;;;;;;5024004;28;20029;-81
2022/03/08 05:51:29;;;;;;;18.58;10.93;;;-3.40;76.20;;;;;;5033975;28;20029;-80
2022/03/08 05:53:55;;;;;;;16.40;9.85;;;-3.40;76.40;;;;;;5022960;28;20030;-80
2022/03/08 05:56:21;;;;;;;17.80;8.93;;;-3.40;76.50;;;;;;5047363;28;20060;-79
2022/03/08 05:58:47;;;;;;;18.98;10.27;;;-3.30;76.60;;;;;;5025238;28;20078;-80
2022/03/08 06:01:12;;;;;;;18.70;9.95;;;-3.20;76.60;;;;;;5030400;28;20096;-80
2022/03/08 06:03:38;;;;;;;17.33;9.05;;;-3.20;76.60;;;;;;5046969;28;20036;-81
2022/03/08 06:06:04;;;;;;;19.60;10.05;;;-3.10;76.60;;;;;;5050363;28;20052;-81
2022/03/08 06:08:30;;;;;;;19.55;10.30;;;-3.00;76.50;;;;;;5027185;28;20135;-80
2022/03/08 06:10:56;;;;;;;15.57;10.07;;;-3.00;76.30;;;;;;5051488;28;20033;-80
2022/03/08 06:13:22;;;;;;;15.60;9.57;;;-3.00;76.10;;;;;;5048639;28;20026;-79
2022/03/08 06:15:47;;;;;;;14.32;8.52;;;-3.00;75.90;;;;;;5055379;28;20040;-80
2022/03/08 06:18:13;;;;;;;17.40;9.80;;;-2.90;76.00;;;;;;5054552;28;20033;-81
2022/03/08 06:20:39;;;;;;;16.77;9.63;;;-2.90;76.00;;;;;;5056081;28;20085;-82
2022/03/08 06:23:05;;;;;;;17.50;9.35;;;-2.80;76.20;;;;;;5053271;28;20041;-82
2022/03/08 06:25:31;;;;;;;19.00;8.98;;;-2.70;76.50;;;;;;5038528;28;20035;-82
2022/03/08 06:27:56;;;;;;;17.30;9.80;;;-2.60;76.30;;;;;;5036300;28;20053;-83
2022/03/08 06:30:22;;;;;;;17.40;9.88;;;-2.60;76.00;;;;;;5019426;28;20125;-82
2022/03/08 06:32:48;;;;;;;17.75;9.25;;;-2.60;75.80;;;;;;5030440;28;20085;-83
2022/03/08 06:35:14;;;;;;;16.65;9.27;;;-2.60;75.90;;;;;;5017418;28;20034;-83
2022/03/08 06:37:40;;;;;;;13.68;8.93;;;-2.50;76.00;;;;;;5032869;28;20061;-83
2022/03/08 06:40:07;;;;;;;17.42;9.27;;;-2.50;75.90;;;;;;5030342;28;20041;-82
2022/03/08 06:42:36;;;;;;;16.15;9.43;;;-2.40;75.80;;;;;;5031587;28;20037;-81
2022/03/08 06:45:04;;;;;;;20.30;10.65;;;-2.40;75.60;;;;;;5029788;28;20025;-88
2022/03/08 06:47:30;;;;;;;19.38;10.18;;;-2.40;75.50;;;;;;5013114;28;20038;-83
2022/03/08 06:49:56;;;;;;;19.50;9.90;;;-2.50;75.40;;;;;;5032571;28;20101;-82
2022/03/08 06:52:22;;;;;;;19.20;10.02;;;-2.50;75.50;;;;;;5041652;28;20029;-82
2022/03/08 06:54:47;;;;;;;19.08;10.27;;;-2.50;75.80;;;;;;5041201;28;20086;-81
2022/03/08 06:57:13;;;;;;;17.90;10.38;;;-2.50;76.00;;;;;;5041297;28;20017;-82
2022/03/08 06:59:39;;;;;;;17.83;9.20;;;-2.40;76.20;;;;;;5023949;28;20057;-82
2022/03/08 07:02:05;;;;;;;17.05;9.68;;;-2.30;76.20;;;;;;5040993;28;20017;-81
2022/03/08 07:04:31;;;;;;;21.08;9.68;;;-2.20;76.20;;;;;;5040801;28;20022;-82
2022/03/08 07:06:57;;;;;;;18.00;10.23;;;-2.00;76.10;;;;;;5020861;28;20056;-83
2022/03/08 07:09:23;;;;;;;20.52;10.57;;;-1.90;75.70;;;;;;5026412;28;20033;-83
2022/03/08 07:11:49;;;;;;;17.17;10.18;;;-1.80;75.00;;;;;;5035062;28;20018;-82
2022/03/08 07:14:15;;;;;;;20.23;10.25;;;-1.70;74.60;;;;;;5018677;28;20048;-82
2022/03/08 07:16:42;;;;;;;18.40;9.70;;;-1.50;74.50;;;;;;5035699;28;20021;-83
2022/03/08 07:19:09;;;;;;;30.38;10.18;;;-1.50;74.10;;;;;;5026399;28;20078;-83
2022/03/08 07:21:34;;;;;;;16.40;9.93;;;-1.30;73.80;;;;;;5037320;28;20022;-85
2022/03/08 07:24:00;;;;;;;20.58;10.27;;;-1.20;73.20;;;;;;5013710;28;20033;-83
2022/03/08 07:26:26;;;;;;;16.48;9.98;;;-1.10;73.00;;;;;;5016292;28;20052;-84
2022/03/08 07:28:52;;;;;;;23.55;10.43;;;-0.90;72.50;;;;;;5030761;28;20513;-83
2022/03/08 07:31:18;;;;;;;14.25;8.90;;;-0.70;72.10;;;;;;5026855;28;20075;-84
2022/03/08 07:33:43;;;;;;;17.75;9.63;;;-0.40;72.10;;;;;;5044303;28;20026;-83
2022/03/08 07:36:09;;;;;;;16.58;9.77;;;-0.20;71.00;;;;;;5026277;28;20032;-83
2022/03/08 07:38:36;;;;;;;16.00;9.10;;;0.00;70.70;;;;;;5044786;28;20022;-82
2022/03/08 07:41:03;;;;;;;13.85;8.90;;;0.10;70.00;;;;;;5028149;28;20037;-83
2022/03/08 07:43:29;;;;;;;15.02;9.68;;;0.30;69.50;;;;;;5056397;28;20009;-83
2022/03/08 07:45:59;;;;;;;16.80;10.13;;;0.50;69.00;;;;;;5056010;28;20022;-84
2022/03/08 07:48:25;;;;;;;13.45;9.35;;;0.70;68.60;;;;;;5057273;28;20026;-83
2022/03/08 07:50:51;;;;;;;17.33;8.77;;;0.90;67.70;;;;;;5036122;28;20144;-84
2022/03/08 07:53:17;;;;;;;15.70;9.75;;;0.90;67.00;;;;;;5032446;28;20035;-84
2022/03/08 07:55:43;;;;;;;20.38;9.18;;;0.90;67.30;;;;;;5041196;28;20018;-82
2022/03/08 07:58:12;;;;;;;14.73;9.05;;;0.90;66.70;;;;;;5042464;28;20018;-82
2022/03/08 08:00:40;;;;;;;14.00;9.35;;;1.10;66.70;;;;;;5052120;28;20022;-85
2022/03/08 08:03:07;;;;;;;13.48;8.55;;;1.10;65.00;;;;;;5056047;28;20025;-83
2022/03/08 08:05:34;;;;;;;13.80;8.63;;;0.90;65.20;;;;;;5055491;28;20016;-83
2022/03/08 08:08:02;;;;;;;14.23;8.85;;;0.80;65.60;;;;;;5055003;28;20017;-83
2022/03/08 08:10:28;;;;;;;13.73;9.27;;;0.80;65.80;;;;;;5048125;28;20013;-85
2022/03/08 08:12:53;;;;;;;13.57;7.90;;;0.80;65.70;;;;;;5035071;28;20033;-85
2022/03/08 08:15:19;;;;;;;18.75;8.68;;;0.90;66.10;;;;;;5052940;28;20025;-85
2022/03/08 08:17:45;;;;;;;16.45;9.57;;;1.10;65.80;;;;;;5054596;28;20053;-83
2022/03/08 08:20:11;;;;;;;17.27;9.55;;;1.30;65.50;;;;;;5053936;28;20137;-84
2022/03/08 08:22:38;;;;;;;13.45;8.75;;;1.60;65.20;;;;;;5036176;28;20048;-84
2022/03/08 08:25:05;;;;;;;14.75;8.80;;;1.80;63.60;;;;;;5032531;28;20048;-82
2022/03/08 08:27:32;;;;;;;15.43;9.63;;;1.80;63.10;;;;;;5030542;28;20041;-83
2022/03/08 08:29:58;;;;;;;15.65;9.45;;;1.80;63.20;;;;;;5038884;28;20043;-85
2022/03/08 08:32:27;;;;;;;13.05;8.13;;;1.90;63.00;;;;;;5055710;28;20048;-85
2022/03/08 08:34:52;;;;;;;13.40;8.40;;;2.10;63.10;;;;;;5038923;28;20037;-84
2022/03/08 08:37:18;;;;;;;14.98;8.73;;;2.40;62.40;;;;;;5055774;28;20032;-83
2022/03/08 08:39:44;;;;;;;14.60;8.38;;;2.70;61.60;;;;;;5056029;28;20024;-83
2022/03/08 08:42:10;;;;;;;11.32;8.10;;;2.70;60.50;;;;;;5038385;28;20025;-84
2022/03/08 08:44:36;;;;;;;16.25;8.25;;;2.90;60.80;;;;;;5036865;28;20064;-85
2022/03/08 08:47:03;;;;;;;15.32;8.27;;;3.00;60.30;;;;;;5055029;28;20033;-84
2022/03/08 08:49:32;;;;;;;11.50;7.55;;;3.40;59.90;;;;;;5051817;28;20017;-85
2022/03/08 08:52:01;;;;;;;15.32;7.03;;;3.60;59.30;;;;;;5053961;28;20049;-85
2022/03/08 08:54:27;;;;;;;9.80;7.15;;;3.80;58.60;;;;;;5054703;28;20029;-86
2022/03/08 08:56:53;;;;;;;9.27;6.80;;;4.00;58.40;;;;;;5054407;28;20021;-84
2022/03/08 08:59:19;;;;;;;13.55;7.20;;;4.20;57.80;;;;;;5047484;28;20034;-85
2022/03/08 09:01:45;;;;;;;11.25;6.45;;;4.30;56.50;;;;;;5053303;28;20497;-84
2022/03/08 09:04:13;;;;;;;10.43;6.07;;;4.40;55.50;;;;;;5051643;28;20054;-85
2022/03/08 09:06:40;;;;;;;11.00;6.85;;;4.40;55.30;;;;;;5051805;28;20079;-84
2022/03/08 09:09:12;;;;;;;10.30;6.03;;;4.40;54.20;;;;;;5034628;28;20052;-84
2022/03/08 09:11:45;;;;;;;11.48;6.65;;;4.40;54.40;;;;;;5036299;28;20029;-85
2022/03/08 09:14:11;;;;;;;9.60;6.72;;;4.50;53.50;;;;;;5035489;28;20025;-85
2022/03/08 09:16:37;;;;;;;11.07;6.43;;;4.60;53.40;;;;;;5034955;28;20052;-85
2022/03/08 09:19:03;;;;;;;8.73;5.90;;;4.70;52.70;;;;;;5036555;28;20017;-84
2022/03/08 09:21:29;;;;;;;10.45;5.53;;;4.60;52.00;;;;;;5037605;28;20022;-84
2022/03/08 09:23:55;;;;;;;11.00;5.60;;;4.80;52.10;;;;;;5037112;28;20033;-85
2022/03/08 09:26:21;;;;;;;8.13;5.65;;;5.00;52.40;;;;;;5035792;28;20041;-86
2022/03/08 09:28:47;;;;;;;7.95;5.65;;;5.30;51.60;;;;;;5038088;28;20022;-85
2022/03/08 09:31:31;;;;;;;7.95;5.47;;;5.60;51.40;;;;;;5039457;28;20029;-86
2022/03/08 09:33:57;;;;;;;8.02;5.30;;;5.90;50.80;;;;;;5038146;28;20005;-85
2022/03/08 09:36:26;;;;;;;9.50;4.93;;;6.00;49.40;;;;;;5054952;28;20041;-84
2022/03/08 09:38:52;;;;;;;9.30;4.60;;;6.10;48.60;;;;;;5037231;28;20076;-85
2022/03/08 09:41:25;;;;;;;9.80;4.68;;;6.10;48.20;;;;;;5049562;28;20026;-85
2022/03/08 09:43:51;;;;;;;6.05;3.78;;;5.90;47.10;;;;;;5034902;28;20022;-84
2022/03/08 09:46:17;;;;;;;7.38;4.13;;;5.90;47.50;;;;;;5051333;28;20026;-85
2022/03/08 09:48:43;;;;;;;8.00;3.85;;;6.10;47.30;;;;;;5032593;28;20101;-84
2022/03/08 09:51:10;;;;;;;6.97;3.40;;;6.10;46.10;;;;;;5034260;28;20413;-84
2022/03/08 09:53:37;;;;;;;8.43;4.45;;;6.10;46.20;;;;;;5038638;28;20033;-85
2022/03/08 09:56:04;;;;;;;7.75;3.60;;;6.10;46.40;;;;;;5024155;28;20461;-85
2022/03/08 09:58:31;;;;;;;8.10;4.47;;;6.20;46.00;;;;;;5006285;28;20037;-84
2022/03/08 10:01:00;;;;;;;8.18;4.82;;;6.20;46.30;;;;;;5023559;28;20022;-85
2022/03/08 10:03:40;;;;;;;9.20;4.25;;;6.20;45.70;;;;;;5043122;28;20089;-85
2022/03/08 10:06:10;;;;;;;4.95;3.55;;;6.20;45.60;;;;;;5037376;28;20061;-85
2022/03/08 10:08:43;;;;;;;5.25;3.33;;;6.30;45.80;;;;;;5021356;28;20458;-85
2022/03/08 10:11:14;;;;;;;4.93;3.83;;;6.50;45.80;;;;;;5036707;28;20124;-83
2022/03/08 10:13:46;;;;;;;4.80;3.65;;;6.60;44.60;;;;;;5049327;28;20055;-83
2022/03/08 10:16:13;;;;;;;10.35;4.57;;;6.60;45.00;;;;;;5025317;28;20049;-82
2022/03/08 10:18:46;;;;;;;7.45;4.43;;;6.60;44.80;;;;;;5049307;28;20081;-82
2022/03/08 10:21:25;;;;;;;4.22;3.72;;;6.60;45.60;;;;;;5032572;28;20112;-82
2022/03/08 10:23:52;;;;;;;4.80;3.92;;;6.80;45.30;;;;;;5049285;28;20033;-82
2022/03/08 10:26:19;;;;;;;5.78;4.68;;;6.90;45.00;;;;;;5022207;28;20036;-83
2022/03/08 10:28:50;;;;;;;5.50;3.63;;;7.00;44.10;;;;;;5052262;28;20055;-83
2022/03/08 10:31:17;;;;;;;12.48;4.10;;;6.90;44.60;;;;;;5052600;28;20045;-83
2022/03/08 10:33:50;;;;;;;7.60;4.05;;;7.10;44.20;;;;;;5054120;28;20034;-83
2022/03/08 10:36:21;;;;;;;6.70;4.60;;;7.00;44.40;;;;;;5038172;28;20093;-82
2022/03/08 10:39:15;;;;;;;6.28;4.57;;;7.20;44.40;;;;;;5055696;28;20041;-83
2022/03/08 10:41:56;;;;;;;9.20;3.47;;;7.30;44.50;;;;;;5055678;28;20044;-83
2022/03/08 10:44:44;;;;;;;5.20;3.75;;;7.80;54.30;;;;;;5038077;28;20088;-81
2022/03/08 10:47:12;;;;;;;7.35;4.72;;;7.70;43.50;;;;;;5055925;28;20098;-82
2022/03/08 10:49:56;;;;;;;4.72;3.58;;;7.60;43.20;;;;;;5035991;28;20026;-83
2022/03/08 10:52:30;;;;;;;5.05;3.42;;;7.60;41.80;;;;;;5033288;28;20025;-82
2022/03/08 10:55:16;;;;;;;5.45;3.40;;;7.40;41.40;;;;;;5030211;28;20052;-83
2022/03/08 10:57:45;;;;;;;5.43;3.38;;;7.40;42.10;;;;;;5028540;28;20068;-82
2022/03/08 11:00:14;;;;;;;3.65;2.92;;;7.50;41.60;;;;;;5046537;28;20030;-84
2022/03/08 11:03:14;;;;;;;5.60;3.83;;;7.40;41.60;;;;;;5034374;28;20079;-82
2022/03/08 11:05:49;;;;;;;7.93;3.60;;;7.20;41.80;;;;;;5010621;28;20097;-84
2022/03/08 11:08:18;;;;;;;7.05;3.25;;;7.20;42.00;;;;;;5037459;28;20018;-82
2022/03/08 11:10:45;;;;;;;4.97;3.28;;;7.20;41.90;;;;;;5059600;28;20072;-82
2022/03/08 11:13:11;;;;;;;6.43;3.47;;;7.40;42.10;;;;;;5060048;28;20069;-79
2022/03/08 11:15:43;;;;;;;5.05;2.92;;;7.70;41.50;;;;;;5043136;28;20029;-79
2022/03/08 11:18:11;;;;;;;6.72;3.05;;;7.90;41.00;;;;;;5060369;28;20033;-82
2022/03/08 11:20:39;;;;;;;7.18;3.03;;;8.10;40.10;;;;;;5042648;28;20093;-80
2022/03/08 11:23:06;;;;;;;3.97;2.83;;;8.20;39.30;;;;;;5040915;28;20081;-84
2022/03/08 11:25:35;;;;;;;5.80;3.72;;;8.00;39.10;;;;;;5046188;28;20033;-83
2022/03/08 11:28:02;;;;;;;3.75;2.97;;;7.90;39.10;;;;;;5038832;28;20026;-81
2022/03/08 11:30:35;;;;;;;3.55;2.78;;;7.70;39.40;;;;;;5022824;28;20033;-82
2022/03/08 11:33:14;;;;;;;6.13;3.05;;;7.70;39.90;;;;;;5013790;28;20121;-84
2022/03/08 11:35:57;;;;;;;4.10;2.88;;;7.70;39.50;;;;;;5034408;28;20022;-83
2022/03/08 11:38:24;;;;;;;4.95;3.30;;;7.70;39.80;;;;;;5018546;28;20049;-83
2022/03/08 11:41:00;;;;;;;5.07;3.00;;;8.00;39.60;;;;;;5030600;28;20025;-83
2022/03/08 11:43:43;;;;;;;4.05;3.20;;;8.20;39.10;;;;;;5036664;28;20032;-84
2022/03/08 11:46:20;;;;;;;4.55;3.35;;;8.50;38.40;;;;;;5036708;28;20025;-83
2022/03/08 11:48:56;;;;;;;5.18;3.28;;;8.50;38.20;;;;;;5018885;28;20080;-83
2022/03/08 11:51:29;;;;;;;5.50;3.70;;;8.20;37.70;;;;;;5034184;28;20038;-82
2022/03/08 11:54:06;;;;;;;4.28;3.35;;;8.20;38.10;;;;;;5032610;28;20052;-82
2022/03/08 11:56:54;;;;;;;7.82;3.42;;;8.00;38.70;;;;;;5037520;28;20029;-82
2022/03/08 11:59:20;;;;;;;4.75;3.35;;;8.00;38.70;;;;;;5038968;28;20009;-81
2022/03/08 12:01:47;;;;;;;6.30;3.22;;;7.90;39.00;;;;;;5052807;28;20017;-83
2022/03/08 12:04:22;;;;;;;6.90;3.75;;;8.00;39.20;;;;;;5037557;28;20238;-83
2022/03/08 12:06:54;;;;;;;5.30;3.67;;;8.10;38.50;;;;;;5037812;28;20029;-82
2022/03/08 12:09:21;;;;;;;4.13;3.08;;;8.00;38.50;;;;;;5037384;28;20029;-83
2022/03/08 12:11:59;;;;;;;6.57;3.45;;;8.10;39.00;;;;;;5052357;28;20033;-83
2022/03/08 12:14:49;;;;;;;6.72;3.85;;;8.30;38.80;;;;;;5034758;28;20021;-83
2022/03/08 12:17:18;;;;;;;5.43;3.72;;;8.40;38.80;;;;;;5053328;28;20033;-82
2022/03/08 12:19:55;;;;;;;5.00;4.03;;;8.30;39.30;;;;;;5051006;28;20017;-83
2022/03/08 12:22:23;;;;;;;11.98;4.88;;;8.30;39.80;;;;;;5053237;28;20033;-83
2022/03/08 12:24:55;;;;;;;7.50;4.28;;;8.20;40.00;;;;;;5052082;28;20048;-82
2022/03/08 12:27:23;;;;;;;8.38;4.50;;;8.00;40.50;;;;;;5017211;28;20022;-83
2022/03/08 12:29:59;;;;;;;6.38;3.90;;;7.90;40.20;;;;;;5019138;28;20034;-83
2022/03/08 12:32:34;;;;;;;5.53;3.70;;;7.80;41.00;;;;;;5035313;28;20037;-81
2022/03/08 12:35:17;;;;;;;7.75;4.40;;;8.00;40.90;;;;;;5036222;28;20025;-82
2022/03/08 12:37:45;;;;;;;8.63;3.95;;;8.00;40.70;;;;;;5036645;28;20022;-82
2022/03/08 12:40:35;;;;;;;5.53;3.60;;;8.00;41.10;;;;;;5036477;28;20033;-81
2022/03/08 12:43:09;;;;;;;4.97;3.15;;;8.00;40.20;;;;;;5035878;28;20058;-83